Time;durP1;ratioP1;P1;durP2;ratioP2;P2;SDS_P1;SDS_P2;PMS_P1;PMS_P2;Temp;Humidity;BMP_temperature;BMP_pressure;BME280_temperature;BME280_humidity;BME280_pressure;Samples;Min_cycle;Max_cycle;Signal;HPM_P1;HPM_P2
2022/12/20 00:01:35;;;;;;;11.27;10.17;;;7.50;99.90;;;;;;4981678;28;20543;-77
2022/12/20 00:04:05;;;;;;;11.80;10.70;;;7.60;99.90;;;;;;4981868;28;20924;-78
2022/12/20 00:06:35;;;;;;;10.77;9.47;;;7.60;99.90;;;;;;4981570;28;20960;-78
2022/12/20 00:09:06;;;;;;;11.03;9.70;;;7.70;99.90;;;;;;4982338;28;20536;-79
2022/12/20 00:11:35;;;;;;;10.57;9.60;;;7.70;99.90;;;;;;4983814;28;20518;-77
2022/12/20 00:14:03;;;;;;;11.30;9.13;;;7.70;99.90;;;;;;4981918;28;20856;-78
2022/12/20 00:16:32;;;;;;;11.77;10.57;;;7.80;99.90;;;;;;4981387;28;20462;-78
2022/12/20 00:19:04;;;;;;;11.17;9.87;;;7.80;99.90;;;;;;4981364;28;20803;-78
2022/12/20 00:21:35;;;;;;;11.10;10.00;;;7.80;99.90;;;;;;4980313;28;20989;-79
2022/12/20 00:24:05;;;;;;;11.63;10.50;;;7.90;99.90;;;;;;4979506;28;20508;-77
2022/12/20 00:26:34;;;;;;;11.20;10.20;;;7.90;99.90;;;;;;4981405;28;20513;-77
2022/12/20 00:29:03;;;;;;;12.33;9.30;;;7.90;99.90;;;;;;4976584;28;20505;-79
2022/12/20 00:31:31;;;;;;;10.03;9.03;;;7.90;99.90;;;;;;4977596;28;20456;-79
2022/12/20 00:34:01;;;;;;;11.97;10.67;;;7.90;99.90;;;;;;4983943;28;20951;-79
2022/12/20 00:36:32;;;;;;;10.97;9.87;;;8.00;99.90;;;;;;4996423;28;20973;-77
2022/12/20 00:39:00;;;;;;;13.17;11.87;;;8.00;99.90;;;;;;4996299;28;20584;-77
2022/12/20 00:41:32;;;;;;;11.43;10.40;;;8.00;99.90;;;;;;4996850;28;20464;-76
2022/12/20 00:44:01;;;;;;;9.83;8.93;;;8.00;99.90;;;;;;4997280;28;20479;-77
2022/12/20 00:46:30;;;;;;;11.13;10.03;;;8.00;99.90;;;;;;4997386;28;20448;-76
2022/12/20 00:49:00;;;;;;;10.80;9.70;;;8.00;99.90;;;;;;4996261;28;20470;-77
2022/12/20 00:51:30;;;;;;;12.97;11.67;;;8.00;99.90;;;;;;4995645;28;20448;-77
2022/12/20 00:53:59;;;;;;;11.17;9.67;;;8.00;99.90;;;;;;4995480;28;20443;-77
2022/12/20 00:56:27;;;;;;;11.07;9.77;;;8.00;99.90;;;;;;4997249;28;20855;-78
2022/12/20 00:58:58;;;;;;;10.57;9.57;;;8.00;99.90;;;;;;4997203;28;20475;-78
2022/12/20 01:01:29;;;;;;;11.50;10.40;;;8.10;99.90;;;;;;4998456;28;20444;-77
2022/12/20 01:03:57;;;;;;;10.97;9.97;;;8.00;99.90;;;;;;4997934;28;20447;-77
2022/12/20 01:06:28;;;;;;;10.70;9.60;;;8.00;99.90;;;;;;4997460;28;21022;-78
2022/12/20 01:08:57;;;;;;;10.07;9.20;;;8.10;99.90;;;;;;4997545;28;20474;-77
2022/12/20 01:11:27;;;;;;;10.50;9.37;;;8.10;99.90;;;;;;4997318;28;20497;-77
2022/12/20 01:13:58;;;;;;;10.90;9.80;;;8.10;99.90;;;;;;4999263;28;20455;-77
2022/12/20 01:16:29;;;;;;;10.43;9.40;;;8.10;99.90;;;;;;4997383;28;20454;-78
2022/12/20 01:18:57;;;;;;;9.47;8.67;;;8.10;99.90;;;;;;4998195;28;20936;-78
2022/12/20 01:21:28;;;;;;;11.40;10.30;;;8.20;99.90;;;;;;4997421;28;20530;-78
2022/12/20 01:23:57;;;;;;;11.97;9.37;;;8.20;99.90;;;;;;4996354;28;20963;-78
2022/12/20 01:26:27;;;;;;;9.57;8.43;;;8.20;99.90;;;;;;5000459;28;20804;-78
2022/12/20 01:28:57;;;;;;;10.77;9.70;;;8.20;99.90;;;;;;5000101;28;20561;-78
2022/12/20 01:31:27;;;;;;;11.33;9.57;;;8.20;99.90;;;;;;4998740;28;20451;-77
2022/12/20 01:33:55;;;;;;;11.50;10.40;;;8.20;99.90;;;;;;4997490;28;20459;-78
2022/12/20 01:36:28;;;;;;;10.63;9.63;;;8.20;99.90;;;;;;4998264;28;20462;-78
2022/12/20 01:38:57;;;;;;;11.30;10.17;;;8.30;99.90;;;;;;4997206;28;20456;-78
2022/12/20 01:41:27;;;;;;;11.00;10.00;;;8.30;99.90;;;;;;4997137;28;20448;-78
2022/12/20 01:43:57;;;;;;;10.43;9.47;;;8.30;99.90;;;;;;4999774;28;20443;-78
2022/12/20 01:46:27;;;;;;;10.83;9.63;;;8.30;99.90;;;;;;4997652;28;20451;-78
2022/12/20 01:48:59;;;;;;;10.83;9.63;;;8.40;99.90;;;;;;4997489;28;20518;-78
2022/12/20 01:51:32;;;;;;;9.50;8.50;;;8.40;99.90;;;;;;4997575;28;20979;-78
2022/12/20 01:54:05;;;;;;;10.60;9.60;;;8.40;99.90;;;;;;4999248;28;20435;-78
2022/12/20 01:56:35;;;;;;;12.23;9.77;;;8.40;99.90;;;;;;4997901;28;20440;-78
2022/12/20 01:59:03;;;;;;;10.47;9.47;;;8.40;99.90;;;;;;4997660;28;20460;-78
2022/12/20 02:01:32;;;;;;;11.17;10.17;;;8.40;99.90;;;;;;4996808;28;20444;-78
2022/12/20 02:04:00;;;;;;;9.83;8.93;;;8.40;99.90;;;;;;4998064;28;20456;-77
2022/12/20 02:06:29;;;;;;;9.93;9.00;;;8.40;99.90;;;;;;4996795;28;20439;-77
2022/12/20 02:09:02;;;;;;;11.27;10.17;;;8.40;99.90;;;;;;4996853;28;20467;-78
2022/12/20 02:11:46;;;;;;;9.53;8.63;;;8.40;99.90;;;;;;4996631;28;20452;-77
2022/12/20 02:14:25;;;;;;;10.60;9.60;;;8.40;99.90;;;;;;4995445;28;20487;-78
2022/12/20 02:17:02;;;;;;;11.07;9.57;;;8.40;99.90;;;;;;4997992;28;20431;-78
2022/12/20 02:20:14;;;;;;;10.27;9.27;;;8.40;99.90;;;;;;4996586;28;20451;-78
2022/12/20 02:23:03;;;;;;;10.80;9.70;;;8.40;99.90;;;;;;4920701;29;20450;-77
2022/12/20 02:25:46;;;;;;;10.33;9.43;;;8.40;99.90;;;;;;4996248;28;20828;-78
2022/12/20 02:28:31;;;;;;;9.93;8.93;;;8.40;99.90;;;;;;4996561;28;20462;-78
2022/12/20 02:31:08;;;;;;;10.50;9.57;;;8.40;99.90;;;;;;4998027;28;20422;-78
2022/12/20 02:33:36;;;;;;;11.03;9.93;;;8.40;99.90;;;;;;4997581;28;20432;-79
2022/12/20 02:36:04;;;;;;;11.03;10.00;;;8.40;99.90;;;;;;4996908;28;20517;-79
2022/12/20 02:38:35;;;;;;;9.90;8.80;;;8.40;99.90;;;;;;4995843;28;20448;-79
2022/12/20 02:41:09;;;;;;;9.77;8.90;;;8.40;99.90;;;;;;4996591;28;20504;-79
2022/12/20 02:46:32;;;;;;;10.53;9.40;;;8.50;99.90;;;;;;4996721;28;20499;-79
2022/12/20 02:49:04;;;;;;;9.33;8.43;;;8.40;99.90;;;;;;4996000;28;20479;-78
2022/12/20 02:51:34;;;;;;;9.93;8.83;;;8.40;99.90;;;;;;4997164;28;20957;-79
2022/12/20 02:54:02;;;;;;;10.20;9.20;;;8.40;99.90;;;;;;4996174;28;20497;-78
2022/12/20 02:56:35;;;;;;;10.33;9.33;;;8.50;99.90;;;;;;4995869;28;20464;-78
2022/12/20 02:59:08;;;;;;;11.80;10.17;;;8.40;99.90;;;;;;4996096;28;20463;-78
2022/12/20 03:01:44;;;;;;;9.97;8.97;;;8.50;99.90;;;;;;4996645;28;20443;-78
2022/12/20 03:04:13;;;;;;;9.97;9.00;;;8.50;99.90;;;;;;4995246;28;20846;-78
2022/12/20 03:06:56;;;;;;;9.97;8.73;;;8.50;99.90;;;;;;4995706;28;20456;-78
2022/12/20 03:09:24;;;;;;;11.13;8.83;;;8.50;99.90;;;;;;4996033;28;20460;-79
2022/12/20 03:11:53;;;;;;;9.03;7.53;;;8.50;99.90;;;;;;4996484;28;20441;-79
2022/12/20 03:14:23;;;;;;;10.30;9.10;;;8.50;99.90;;;;;;4996739;28;20496;-80
2022/12/20 03:16:54;;;;;;;10.27;9.37;;;8.50;99.90;;;;;;4996997;28;20963;-79
2022/12/20 03:19:22;;;;;;;9.17;8.37;;;8.60;99.90;;;;;;5005281;28;20462;-78
2022/12/20 03:21:51;;;;;;;9.80;8.57;;;8.60;99.90;;;;;;5005817;28;20452;-79
2022/12/20 03:24:19;;;;;;;9.00;8.20;;;8.60;99.90;;;;;;5001705;28;20504;-79
2022/12/20 03:26:48;;;;;;;9.70;8.70;;;8.60;99.90;;;;;;4995200;28;20460;-78
2022/12/20 03:29:18;;;;;;;9.53;8.63;;;8.60;99.90;;;;;;4995007;28;20989;-78
2022/12/20 03:31:46;;;;;;;8.30;7.50;;;8.60;99.90;;;;;;4994734;28;20441;-78
2022/12/20 03:34:16;;;;;;;9.47;8.40;;;8.60;99.90;;;;;;4994688;28;20476;-78
2022/12/20 03:36:44;;;;;;;9.63;8.73;;;8.70;99.90;;;;;;4994593;28;20961;-78
2022/12/20 03:39:12;;;;;;;9.13;8.23;;;8.60;99.90;;;;;;4994728;28;20491;-78
2022/12/20 03:41:41;;;;;;;9.73;8.83;;;8.70;99.90;;;;;;4994766;28;20880;-79
2022/12/20 03:44:11;;;;;;;9.40;8.50;;;8.70;99.90;;;;;;4996000;28;20529;-78
2022/12/20 03:46:40;;;;;;;9.43;8.53;;;8.70;99.90;;;;;;4994658;28;20444;-78
2022/12/20 03:49:08;;;;;;;9.27;8.37;;;8.70;99.90;;;;;;4994440;28;20813;-78
2022/12/20 03:51:45;;;;;;;9.00;8.10;;;8.70;99.90;;;;;;4994459;28;20450;-78
2022/12/20 03:54:13;;;;;;;9.07;8.17;;;8.70;99.90;;;;;;4993560;28;20480;-78
2022/12/20 03:57:13;;;;;;;8.87;7.97;;;8.70;99.90;;;;;;4999087;28;20437;-78
2022/12/20 03:59:43;;;;;;;8.40;7.60;;;8.80;99.90;;;;;;4994061;28;20513;-79
2022/12/20 04:02:15;;;;;;;9.60;8.40;;;8.70;99.90;;;;;;4994391;28;20527;-78
2022/12/20 04:04:43;;;;;;;9.40;7.80;;;8.80;99.90;;;;;;4997990;28;20480;-79
2022/12/20 04:07:13;;;;;;;9.20;8.30;;;8.80;99.90;;;;;;4998960;28;20483;-79
2022/12/20 04:09:45;;;;;;;11.30;9.23;;;8.70;99.90;;;;;;4998677;28;20974;-78
2022/12/20 04:12:16;;;;;;;9.80;8.80;;;8.80;99.90;;;;;;4998966;28;20516;-79
2022/12/20 04:14:44;;;;;;;9.00;8.17;;;8.80;99.90;;;;;;4998911;28;20472;-79
2022/12/20 04:17:13;;;;;;;9.00;8.10;;;8.80;99.90;;;;;;4998469;28;20487;-79
2022/12/20 04:19:42;;;;;;;9.70;8.70;;;8.80;99.90;;;;;;4998607;28;20452;-79
2022/12/20 04:22:10;;;;;;;8.93;8.03;;;8.90;99.90;;;;;;4998236;28;20484;-79
2022/12/20 04:24:59;;;;;;;10.40;9.30;;;8.90;99.90;;;;;;4998461;28;20476;-79
2022/12/20 04:27:31;;;;;;;10.07;9.03;;;8.90;99.90;;;;;;4998308;28;20475;-79
2022/12/20 04:30:02;;;;;;;8.77;7.97;;;8.90;99.90;;;;;;4998620;28;20487;-79
2022/12/20 04:32:31;;;;;;;9.83;8.10;;;8.90;99.90;;;;;;4996746;28;20530;-78
2022/12/20 04:35:01;;;;;;;9.37;8.30;;;8.90;99.90;;;;;;4996631;28;20479;-78
2022/12/20 04:37:30;;;;;;;8.70;7.90;;;8.90;99.90;;;;;;4996283;28;20517;-78
2022/12/20 04:39:59;;;;;;;8.33;7.53;;;8.90;99.90;;;;;;4996726;28;20560;-79
2022/12/20 04:42:40;;;;;;;9.27;8.27;;;8.90;99.90;;;;;;4996846;28;20970;-79
2022/12/20 04:45:11;;;;;;;11.40;8.60;;;8.90;99.90;;;;;;4995776;28;21012;-78
2022/12/20 04:47:40;;;;;;;10.57;9.03;;;8.90;99.90;;;;;;4996705;28;20459;-79
2022/12/20 04:50:10;;;;;;;8.80;7.90;;;8.90;99.90;;;;;;4996803;28;21010;-78
2022/12/20 04:55:28;;;;;;;10.23;8.90;;;8.90;99.90;;;;;;4998268;28;20471;-79
2022/12/20 04:57:57;;;;;;;9.13;8.20;;;8.90;99.90;;;;;;4997739;28;20449;-79
2022/12/20 05:00:35;;;;;;;9.00;8.10;;;8.90;99.90;;;;;;4998228;28;20531;-79
2022/12/20 05:03:15;;;;;;;8.60;7.70;;;8.90;99.90;;;;;;4998777;28;20511;-79
2022/12/20 05:05:43;;;;;;;8.73;7.93;;;8.90;99.90;;;;;;4997612;28;20491;-79
2022/12/20 05:08:11;;;;;;;8.80;7.90;;;8.90;99.90;;;;;;4997868;28;20551;-79
2022/12/20 05:10:41;;;;;;;9.10;7.67;;;9.00;99.90;;;;;;4997753;28;20476;-79
2022/12/20 05:13:09;;;;;;;8.53;7.73;;;9.00;99.90;;;;;;4998033;28;20539;-79
2022/12/20 05:15:43;;;;;;;9.13;7.83;;;9.00;99.90;;;;;;4997663;28;20566;-79
2022/12/20 05:18:12;;;;;;;9.00;7.77;;;9.00;99.90;;;;;;5000267;28;20456;-80
2022/12/20 05:26:31;;;;;;;9.43;7.70;;;9.10;99.90;;;;;;4997168;28;20480;-79
2022/12/20 05:29:01;;;;;;;9.70;8.80;;;9.10;99.90;;;;;;4996004;28;20472;-78
2022/12/20 05:31:29;;;;;;;9.97;8.30;;;9.10;99.90;;;;;;4996415;28;20471;-80
2022/12/20 05:33:59;;;;;;;9.43;8.50;;;9.10;99.90;;;;;;4996656;28;20480;-79
2022/12/20 05:36:31;;;;;;;9.80;8.13;;;9.20;99.90;;;;;;4996970;28;20457;-79
2022/12/20 05:39:00;;;;;;;9.00;8.07;;;9.20;99.90;;;;;;4997144;28;20453;-78
2022/12/20 05:41:35;;;;;;;9.80;8.50;;;9.20;99.90;;;;;;4997318;28;20453;-79
2022/12/20 05:44:04;;;;;;;11.80;8.77;;;9.20;99.90;;;;;;5000042;28;20447;-79
2022/12/20 05:46:34;;;;;;;9.97;8.37;;;9.20;99.90;;;;;;4999553;28;20929;-80
2022/12/20 05:49:08;;;;;;;9.53;8.17;;;9.20;99.90;;;;;;4997495;28;20444;-80
2022/12/20 05:51:36;;;;;;;9.10;8.20;;;9.20;99.90;;;;;;4997987;28;20468;-80
2022/12/20 05:54:18;;;;;;;9.60;8.70;;;9.20;99.90;;;;;;4998633;28;20476;-80
2022/12/20 05:57:14;;;;;;;11.10;9.17;;;9.20;99.90;;;;;;5003686;28;20530;-79
2022/12/20 05:59:43;;;;;;;10.57;9.57;;;9.20;99.90;;;;;;5003387;28;20540;-80
2022/12/20 06:02:21;;;;;;;10.73;9.73;;;9.20;99.90;;;;;;5003657;28;20523;-80
2022/12/20 06:04:57;;;;;;;10.67;9.70;;;9.20;99.90;;;;;;5003302;28;20476;-80
2022/12/20 06:07:27;;;;;;;9.57;8.57;;;9.30;99.90;;;;;;5004128;28;20559;-80
2022/12/20 06:09:59;;;;;;;11.47;9.90;;;9.30;99.90;;;;;;5001885;28;20445;-80
2022/12/20 06:12:41;;;;;;;12.27;11.07;;;9.30;99.90;;;;;;4998752;28;20471;-79
2022/12/20 06:15:10;;;;;;;13.13;11.93;;;9.30;99.90;;;;;;5003462;28;20452;-79
2022/12/20 06:17:39;;;;;;;11.70;10.60;;;9.30;99.90;;;;;;5000706;28;20523;-80
2022/12/20 06:20:08;;;;;;;11.50;10.40;;;9.30;99.90;;;;;;4999589;28;20478;-78
2022/12/20 06:22:37;;;;;;;11.43;10.23;;;9.30;99.90;;;;;;5001770;28;20444;-78
2022/12/20 06:25:08;;;;;;;11.00;10.00;;;9.30;99.90;;;;;;5000009;28;20488;-80
2022/12/20 06:27:38;;;;;;;11.23;10.23;;;9.30;99.90;;;;;;4998097;28;20457;-79
2022/12/20 06:30:14;;;;;;;10.90;9.90;;;9.30;99.90;;;;;;4997713;28;20447;-80
2022/12/20 06:33:14;;;;;;;10.97;9.70;;;9.30;99.90;;;;;;4992525;28;20444;-80
2022/12/20 06:35:43;;;;;;;11.60;10.50;;;9.30;99.90;;;;;;4996609;28;20461;-78
2022/12/20 06:38:11;;;;;;;11.80;10.57;;;9.30;99.90;;;;;;4995615;28;20447;-79
2022/12/20 06:40:39;;;;;;;12.57;11.07;;;9.30;99.90;;;;;;4995678;28;20452;-78
2022/12/20 06:43:07;;;;;;;12.17;10.07;;;9.30;99.90;;;;;;4995963;28;20467;-80
2022/12/20 06:45:37;;;;;;;10.30;9.30;;;9.30;99.90;;;;;;4996556;28;20477;-80
2022/12/20 06:48:11;;;;;;;10.30;9.33;;;9.30;99.90;;;;;;4996248;28;20467;-79
2022/12/20 06:50:40;;;;;;;12.53;9.40;;;9.30;99.90;;;;;;4999489;28;20514;-79
2022/12/20 06:53:09;;;;;;;10.53;9.50;;;9.30;99.90;;;;;;5001721;28;20459;-80
2022/12/20 06:55:39;;;;;;;11.87;10.67;;;9.30;99.90;;;;;;5002588;28;20477;-80
2022/12/20 06:58:07;;;;;;;10.70;9.63;;;9.30;99.90;;;;;;5003357;28;20460;-80
2022/12/20 07:00:39;;;;;;;11.20;10.10;;;9.20;99.90;;;;;;5000550;28;20452;-80
2022/12/20 07:03:07;;;;;;;10.13;8.70;;;9.20;99.90;;;;;;4998854;28;20448;-80
2022/12/20 07:05:36;;;;;;;10.20;9.20;;;9.30;99.90;;;;;;4995846;28;20519;-79
2022/12/20 07:08:05;;;;;;;10.00;9.10;;;9.20;99.90;;;;;;4996670;28;20437;-80
2022/12/20 07:10:35;;;;;;;10.63;9.70;;;9.30;99.90;;;;;;4996292;28;20463;-79
2022/12/20 07:13:03;;;;;;;9.83;8.93;;;9.30;99.90;;;;;;4997786;28;20813;-79
2022/12/20 07:15:31;;;;;;;10.73;9.20;;;9.30;99.90;;;;;;4992028;28;20479;-79
2022/12/20 07:18:02;;;;;;;9.43;8.53;;;9.30;99.90;;;;;;4977100;28;20984;-79
2022/12/20 07:20:30;;;;;;;9.60;8.60;;;9.30;99.90;;;;;;4975581;28;21066;-79
2022/12/20 07:22:59;;;;;;;8.90;8.10;;;9.30;99.90;;;;;;4976885;28;20540;-79
2022/12/20 07:25:27;;;;;;;9.80;8.90;;;9.20;99.90;;;;;;4976066;28;20473;-78
2022/12/20 07:27:56;;;;;;;9.23;8.33;;;9.30;99.90;;;;;;4976973;28;20817;-79
2022/12/20 07:30:24;;;;;;;11.43;8.50;;;9.30;99.90;;;;;;4977497;28;20536;-80
2022/12/20 07:32:53;;;;;;;9.53;8.57;;;9.30;99.90;;;;;;4976080;28;20473;-79
2022/12/20 07:35:22;;;;;;;8.40;7.63;;;9.30;99.90;;;;;;4977953;28;20463;-79
2022/12/20 07:37:53;;;;;;;8.43;7.60;;;9.30;99.90;;;;;;4978765;28;20457;-78
2022/12/20 07:40:21;;;;;;;10.23;9.13;;;9.30;99.90;;;;;;4979983;28;21026;-79
2022/12/20 07:42:49;;;;;;;9.40;8.50;;;9.30;99.90;;;;;;4981102;28;20444;-79
2022/12/20 07:45:18;;;;;;;9.17;8.27;;;9.30;99.90;;;;;;4979947;28;20474;-80
2022/12/20 07:47:46;;;;;;;9.73;8.83;;;9.30;99.90;;;;;;4979086;28;20465;-79
2022/12/20 07:50:15;;;;;;;10.80;8.50;;;9.30;99.90;;;;;;4979498;28;20969;-79
2022/12/20 07:52:47;;;;;;;9.27;8.30;;;9.30;99.90;;;;;;4980570;28;20589;-78
2022/12/20 07:55:15;;;;;;;9.57;8.57;;;9.40;99.90;;;;;;4979339;28;21005;-79
2022/12/20 07:57:49;;;;;;;9.10;8.20;;;9.40;99.90;;;;;;4978917;28;20457;-79
2022/12/20 08:00:18;;;;;;;9.77;7.73;;;9.40;99.90;;;;;;4980690;28;20422;-79
2022/12/20 08:02:50;;;;;;;9.07;7.77;;;9.40;99.90;;;;;;4981368;28;20440;-80
2022/12/20 08:05:18;;;;;;;8.90;7.80;;;9.40;99.90;;;;;;4993467;28;21036;-79
2022/12/20 08:07:49;;;;;;;8.50;7.60;;;9.40;99.90;;;;;;4999225;28;20486;-79
2022/12/20 08:10:26;;;;;;;8.83;7.87;;;9.50;99.90;;;;;;4999502;28;20483;-79
2022/12/20 08:12:55;;;;;;;8.67;7.77;;;9.50;99.90;;;;;;4998983;28;20473;-79
2022/12/20 08:15:24;;;;;;;8.67;7.80;;;9.50;99.90;;;;;;4999209;28;20456;-79
2022/12/20 08:17:52;;;;;;;8.37;7.43;;;9.50;99.90;;;;;;4999113;28;20448;-79
2022/12/20 08:20:21;;;;;;;9.87;8.70;;;9.60;99.90;;;;;;4998904;28;20453;-79
2022/12/20 08:22:50;;;;;;;8.67;7.87;;;9.70;99.90;;;;;;4999607;28;20531;-80
2022/12/20 08:25:20;;;;;;;9.13;7.93;;;9.60;99.90;;;;;;5000395;28;20819;-78
2022/12/20 08:27:48;;;;;;;8.13;6.90;;;9.60;99.90;;;;;;5002427;28;20453;-79
2022/12/20 08:30:17;;;;;;;12.80;8.43;;;9.70;99.90;;;;;;5002213;28;20433;-79
2022/12/20 08:32:45;;;;;;;10.00;8.50;;;9.70;99.90;;;;;;4999538;28;20508;-79
2022/12/20 08:35:13;;;;;;;9.37;7.80;;;9.80;99.90;;;;;;5000146;28;20475;-79
2022/12/20 08:37:42;;;;;;;8.67;7.70;;;9.80;99.90;;;;;;4999272;28;20983;-80
2022/12/20 08:40:12;;;;;;;8.83;7.53;;;9.80;99.90;;;;;;4999934;28;20451;-79
2022/12/20 08:42:40;;;;;;;9.80;8.40;;;9.80;99.90;;;;;;4998525;28;20452;-78
2022/12/20 08:45:09;;;;;;;8.17;7.33;;;9.90;99.90;;;;;;4998401;28;20476;-80
2022/12/20 08:47:38;;;;;;;8.57;7.67;;;9.90;99.90;;;;;;4998469;28;20519;-80
2022/12/20 08:50:07;;;;;;;13.40;7.90;;;9.90;99.90;;;;;;4998909;28;20440;-80
2022/12/20 08:52:35;;;;;;;11.00;7.60;;;9.90;99.90;;;;;;4999833;28;20535;-79
2022/12/20 08:55:04;;;;;;;8.03;7.00;;;10.00;99.90;;;;;;4997759;28;20476;-79
2022/12/20 08:57:34;;;;;;;9.50;7.27;;;10.00;99.90;;;;;;4997999;28;20834;-79
2022/12/20 09:00:02;;;;;;;9.17;8.17;;;10.00;99.90;;;;;;4998860;28;20459;-79
2022/12/20 09:02:31;;;;;;;8.83;7.37;;;10.00;99.90;;;;;;4997894;28;20483;-79
2022/12/20 09:05:03;;;;;;;8.97;8.07;;;10.10;99.90;;;;;;4998576;28;20488;-79
2022/12/20 09:07:32;;;;;;;10.30;7.67;;;10.10;99.90;;;;;;5001268;28;20457;-79
2022/12/20 09:10:01;;;;;;;9.73;7.73;;;10.20;99.90;;;;;;5000625;28;20440;-79
2022/12/20 09:12:29;;;;;;;8.20;7.40;;;10.20;99.90;;;;;;4998332;28;20469;-79
2022/12/20 09:14:59;;;;;;;10.80;7.33;;;10.20;99.90;;;;;;4998283;28;20496;-79
2022/12/20 09:17:27;;;;;;;9.10;7.43;;;10.20;99.90;;;;;;4997437;28;20503;-78
2022/12/20 09:19:55;;;;;;;7.77;7.03;;;10.30;99.90;;;;;;4997223;28;20552;-79
2022/12/20 09:22:23;;;;;;;9.03;7.60;;;10.30;99.90;;;;;;4997585;28;20480;-79
2022/12/20 09:24:51;;;;;;;9.27;6.87;;;10.30;99.90;;;;;;4997619;28;20473;-78
2022/12/20 09:27:20;;;;;;;8.50;6.87;;;10.30;99.90;;;;;;4998623;28;20503;-79
2022/12/20 09:29:48;;;;;;;9.20;6.70;;;10.40;99.90;;;;;;4997344;28;20515;-79
2022/12/20 09:32:18;;;;;;;7.67;6.27;;;10.40;99.90;;;;;;4996787;28;20455;-78
2022/12/20 09:34:47;;;;;;;9.03;6.83;;;10.40;99.90;;;;;;4998164;28;20463;-79
2022/12/20 09:37:15;;;;;;;8.30;7.40;;;10.40;99.90;;;;;;4998350;28;21053;-79
2022/12/20 09:39:43;;;;;;;8.10;7.23;;;10.40;99.90;;;;;;4997024;28;20453;-79
2022/12/20 09:42:15;;;;;;;10.17;6.70;;;10.50;99.90;;;;;;4998589;28;20950;-78
2022/12/20 09:44:43;;;;;;;8.60;7.30;;;10.50;99.90;;;;;;4996675;28;20908;-79
2022/12/20 09:47:17;;;;;;;8.43;7.27;;;10.50;99.90;;;;;;4996706;28;20459;-79
2022/12/20 09:49:48;;;;;;;8.67;6.60;;;10.50;99.90;;;;;;4996569;28;20454;-80
2022/12/20 09:52:33;;;;;;;7.97;6.90;;;10.50;99.90;;;;;;4996959;28;20465;-80
2022/12/20 09:55:16;;;;;;;10.27;6.93;;;10.50;99.90;;;;;;4997401;28;20531;-80
2022/12/20 09:58:00;;;;;;;8.07;6.30;;;10.50;99.90;;;;;;4999066;28;20491;-80
2022/12/20 10:00:29;;;;;;;9.13;6.60;;;10.60;99.90;;;;;;4997559;28;20448;-80
2022/12/20 10:02:58;;;;;;;7.07;6.37;;;10.60;99.90;;;;;;4998329;28;20437;-80
2022/12/20 10:05:45;;;;;;;7.63;5.93;;;10.60;99.90;;;;;;5002651;28;20465;-79
2022/12/20 10:08:24;;;;;;;9.43;7.00;;;10.60;99.90;;;;;;5006505;28;20479;-80
2022/12/20 10:10:56;;;;;;;8.00;7.07;;;10.60;99.90;;;;;;5007241;28;20869;-80
2022/12/20 10:13:40;;;;;;;8.37;7.17;;;10.60;99.90;;;;;;5006856;28;20479;-80
2022/12/20 10:16:27;;;;;;;7.90;6.40;;;10.70;99.90;;;;;;5002121;28;20468;-80
2022/12/20 10:19:14;;;;;;;9.30;7.23;;;10.70;99.90;;;;;;4997108;28;20503;-80
2022/12/20 10:21:50;;;;;;;10.50;6.57;;;10.70;99.90;;;;;;4997429;28;20445;-80
2022/12/20 10:24:21;;;;;;;6.60;5.97;;;10.70;99.90;;;;;;4996332;28;20464;-80
2022/12/20 10:26:51;;;;;;;8.20;5.80;;;10.70;99.90;;;;;;4996704;28;21054;-80
2022/12/20 10:29:20;;;;;;;7.40;6.50;;;10.80;99.90;;;;;;4996789;28;20461;-79
2022/12/20 10:31:52;;;;;;;6.97;6.27;;;10.80;99.90;;;;;;4998697;28;20444;-80
2022/12/20 10:34:23;;;;;;;7.53;6.73;;;10.90;99.90;;;;;;4995480;28;20492;-80
2022/12/20 10:37:11;;;;;;;7.37;6.60;;;10.90;99.90;;;;;;4997708;28;20476;-79
2022/12/20 10:39:44;;;;;;;6.90;6.20;;;10.90;99.90;;;;;;4996782;28;20508;-79
2022/12/20 10:42:31;;;;;;;6.70;5.80;;;10.90;99.90;;;;;;4997898;28;20431;-80
2022/12/20 10:44:59;;;;;;;6.17;5.33;;;11.00;99.90;;;;;;4997195;28;20851;-79
2022/12/20 10:47:38;;;;;;;7.23;5.97;;;11.00;99.90;;;;;;4996984;28;20900;-80
2022/12/20 10:50:18;;;;;;;7.43;6.73;;;11.00;99.90;;;;;;4996326;28;20448;-80
2022/12/20 10:53:11;;;;;;;7.67;6.03;;;11.10;99.90;;;;;;4997971;28;20472;-80
2022/12/20 10:55:41;;;;;;;6.50;5.60;;;11.10;99.90;;;;;;4996412;28;20519;-80
2022/12/20 10:58:15;;;;;;;8.20;6.10;;;11.10;99.90;;;;;;4997936;28;20507;-80
2022/12/20 11:00:44;;;;;;;6.43;5.53;;;11.10;99.90;;;;;;4996199;28;20436;-80
2022/12/20 11:03:16;;;;;;;5.73;4.87;;;11.10;99.90;;;;;;4996218;28;20445;-79
2022/12/20 11:05:56;;;;;;;7.40;5.50;;;11.20;99.90;;;;;;4996784;28;20468;-80
2022/12/20 11:08:26;;;;;;;6.43;5.40;;;11.20;99.90;;;;;;4996770;28;20858;-80
2022/12/20 11:11:15;;;;;;;6.87;5.37;;;11.20;99.90;;;;;;4996715;28;20444;-80
2022/12/20 11:13:45;;;;;;;6.43;5.10;;;11.20;99.90;;;;;;4996300;28;20889;-79
2022/12/20 11:16:35;;;;;;;5.63;5.13;;;11.20;99.90;;;;;;4996070;28;21040;-79
2022/12/20 11:19:21;;;;;;;6.67;5.60;;;11.20;99.90;;;;;;4997836;28;20432;-80
2022/12/20 11:21:59;;;;;;;6.70;5.40;;;11.20;99.90;;;;;;4997946;28;20524;-80
2022/12/20 11:24:35;;;;;;;6.80;5.23;;;11.20;99.90;;;;;;4993491;28;20476;-79
2022/12/20 11:27:19;;;;;;;6.20;5.20;;;11.20;99.90;;;;;;4997192;28;20460;-80
2022/12/20 11:30:09;;;;;;;6.53;5.33;;;11.20;99.90;;;;;;4995791;28;20479;-80
2022/12/20 11:32:53;;;;;;;6.40;5.50;;;11.20;99.90;;;;;;4996028;28;20444;-80
2022/12/20 11:35:27;;;;;;;6.40;5.03;;;11.20;99.90;;;;;;4996106;28;20583;-80
2022/12/20 11:38:07;;;;;;;7.70;6.10;;;11.10;99.90;;;;;;4997099;28;20452;-81
2022/12/20 11:40:44;;;;;;;6.60;5.97;;;11.20;99.90;;;;;;4996256;28;20441;-81
2022/12/20 11:43:29;;;;;;;6.63;6.03;;;11.10;99.90;;;;;;4995913;28;20563;-79
2022/12/20 11:46:16;;;;;;;6.40;5.80;;;11.20;99.90;;;;;;4995510;28;20476;-81
2022/12/20 11:49:00;;;;;;;7.37;6.33;;;11.10;99.90;;;;;;4997231;28;20499;-81
2022/12/20 11:51:38;;;;;;;6.93;5.60;;;11.10;99.90;;;;;;4995641;28;20819;-78
2022/12/20 11:54:11;;;;;;;5.93;5.33;;;11.10;99.90;;;;;;4997010;28;20559;-80
2022/12/20 11:56:41;;;;;;;6.97;5.40;;;11.10;99.90;;;;;;4997561;28;20428;-81
2022/12/20 11:59:20;;;;;;;8.80;5.47;;;11.00;99.90;;;;;;4997488;28;20440;-81
2022/12/20 12:01:56;;;;;;;7.80;6.17;;;11.00;99.90;;;;;;4994967;28;20437;-81
2022/12/20 12:04:30;;;;;;;7.43;6.50;;;11.00;99.90;;;;;;4996117;28;20531;-81
2022/12/20 12:07:02;;;;;;;7.43;6.20;;;11.00;99.90;;;;;;4996045;28;20500;-79
2022/12/20 12:09:36;;;;;;;7.30;6.40;;;11.00;99.90;;;;;;4996883;28;20425;-81
2022/12/20 12:12:10;;;;;;;7.10;6.30;;;11.00;99.90;;;;;;4996947;28;20452;-82
2022/12/20 12:14:54;;;;;;;7.47;6.40;;;11.00;99.90;;;;;;4993416;28;20965;-80
2022/12/20 12:17:29;;;;;;;9.83;6.73;;;11.00;99.90;;;;;;4995170;28;20441;-79
2022/12/20 12:20:06;;;;;;;10.23;6.50;;;11.00;99.90;;;;;;4996365;28;20429;-81
2022/12/20 12:22:39;;;;;;;7.50;6.80;;;11.00;99.90;;;;;;4995016;28;20452;-80
2022/12/20 12:25:16;;;;;;;8.80;6.90;;;11.00;99.90;;;;;;4998239;28;20488;-82
2022/12/20 12:27:44;;;;;;;10.73;6.40;;;10.90;99.90;;;;;;4998416;28;20468;-81
2022/12/20 12:30:14;;;;;;;9.13;7.70;;;10.90;99.90;;;;;;5000217;28;20456;-81
2022/12/20 12:32:47;;;;;;;8.30;7.20;;;10.90;99.90;;;;;;4999893;28;20433;-81
2022/12/20 12:35:42;;;;;;;7.13;6.37;;;10.90;99.90;;;;;;4998299;28;20511;-81
2022/12/20 12:38:53;;;;;;;10.37;8.07;;;10.90;99.90;;;;;;4999500;28;20429;-80
2022/12/20 12:41:59;;;;;;;7.57;6.73;;;10.90;99.90;;;;;;4968621;28;20449;-80
2022/12/20 12:44:46;;;;;;;10.57;6.73;;;10.90;99.90;;;;;;5000656;28;20461;-81
2022/12/20 12:47:22;;;;;;;9.47;8.37;;;10.90;99.90;;;;;;4999590;28;20456;-80
2022/12/20 12:49:52;;;;;;;8.50;6.97;;;10.90;99.90;;;;;;4997795;28;20868;-81
2022/12/20 12:52:42;;;;;;;8.20;7.40;;;10.90;99.90;;;;;;4998018;28;20448;-79
2022/12/20 12:55:37;;;;;;;8.93;7.60;;;10.90;99.90;;;;;;4997747;28;20476;-79
2022/12/20 12:58:34;;;;;;;8.57;7.00;;;10.80;99.90;;;;;;4998649;28;20547;-79
2022/12/20 13:01:07;;;;;;;7.73;6.97;;;10.80;99.90;;;;;;4986128;28;20493;-79
2022/12/20 13:03:40;;;;;;;8.70;6.90;;;10.80;99.90;;;;;;4997606;28;20468;-79
2022/12/20 13:06:46;;;;;;;8.63;7.37;;;10.90;99.90;;;;;;4998079;28;20465;-79
2022/12/20 13:09:35;;;;;;;8.83;7.93;;;10.80;99.90;;;;;;4998493;28;20551;-80
2022/12/20 13:12:48;;;;;;;7.23;6.53;;;10.80;99.90;;;;;;5003578;28;20473;-81
2022/12/20 13:15:52;;;;;;;8.10;7.30;;;10.80;99.90;;;;;;5006203;28;20489;-80
2022/12/20 13:18:28;;;;;;;7.77;6.97;;;10.80;99.90;;;;;;4974548;28;20461;-81
2022/12/20 13:21:38;;;;;;;8.83;6.83;;;10.80;99.90;;;;;;5003130;28;20437;-81
2022/12/20 13:24:36;;;;;;;7.90;7.10;;;10.80;99.90;;;;;;4998059;28;20484;-80
2022/12/20 13:27:16;;;;;;;10.33;8.20;;;10.80;99.90;;;;;;4999393;28;20520;-81
2022/12/20 13:30:24;;;;;;;9.27;7.60;;;10.70;99.90;;;;;;4997996;28;20453;-82
2022/12/20 13:33:02;;;;;;;12.80;7.63;;;10.70;99.90;;;;;;4992394;28;20449;-82